createdAt,value
2019-03-12T00:00:29.512Z,3.30
2019-03-12T00:02:59.078Z,3.30
2019-03-12T00:05:28.584Z,3.20
2019-03-12T00:07:58.106Z,3.30
2019-03-12T00:10:27.748Z,3.30
2019-03-12T00:12:57.394Z,3.20
2019-03-12T00:15:26.934Z,3.20
2019-03-12T00:17:56.434Z,3.30
2019-03-12T00:20:25.960Z,3.20
2019-03-12T00:22:55.440Z,3.20
2019-03-12T00:25:25.001Z,3.20
2019-03-12T00:27:54.584Z,3.20
2019-03-12T00:30:24.150Z,3.10
2019-03-12T00:32:55.769Z,3.20
2019-03-12T00:35:24.920Z,3.20
2019-03-12T00:37:54.391Z,3.10
2019-03-12T00:40:23.978Z,3.10
2019-03-12T00:42:53.601Z,3.10
2019-03-12T00:45:23.141Z,3.10
2019-03-12T00:47:52.623Z,3.10
2019-03-12T00:50:22.218Z,3.10
2019-03-12T00:52:51.873Z,3.10
2019-03-12T00:55:21.311Z,3.10
2019-03-12T00:57:50.801Z,3.10
2019-03-12T01:00:20.611Z,3.10
2019-03-12T01:02:50.139Z,3.10
2019-03-12T01:05:19.597Z,3.10
2019-03-12T01:07:49.189Z,3.10
2019-03-12T01:10:18.841Z,3.10
2019-03-12T01:12:48.548Z,3.10
2019-03-12T01:15:18.084Z,3.10
2019-03-12T01:17:47.660Z,3.00
2019-03-12T01:20:17.236Z,3.00
2019-03-12T01:22:46.840Z,2.90
2019-03-12T01:25:16.602Z,2.90
2019-03-12T01:27:46.271Z,2.80
2019-03-12T01:30:16.705Z,2.80
2019-03-12T01:32:46.396Z,2.80
2019-03-12T01:35:15.940Z,2.80
2019-03-12T01:37:45.382Z,2.70
2019-03-12T01:40:15.117Z,2.70
2019-03-12T01:42:44.596Z,2.70
2019-03-12T01:45:14.303Z,2.70
2019-03-12T01:47:43.881Z,2.80
2019-03-12T01:50:13.534Z,2.70
2019-03-12T01:52:43.089Z,2.80
2019-03-12T01:55:12.915Z,2.80
2019-03-12T01:57:42.500Z,2.80
2019-03-12T02:00:13.979Z,2.80
2019-03-12T02:02:43.543Z,2.80
2019-03-12T02:05:13.484Z,2.80
2019-03-12T02:07:43.121Z,2.80
2019-03-12T02:10:13.126Z,2.80
2019-03-12T02:12:42.693Z,2.90
2019-03-12T02:15:12.502Z,2.90
2019-03-12T02:17:42.139Z,2.90
2019-03-12T02:20:13.551Z,2.90
2019-03-12T02:22:43.045Z,2.90
2019-03-12T02:25:14.595Z,2.90
2019-03-12T02:27:44.077Z,2.90
2019-03-12T02:30:15.519Z,2.90
2019-03-12T02:32:45.396Z,3.00
2019-03-12T02:35:15.428Z,3.00
2019-03-12T02:37:44.955Z,3.00
2019-03-12T02:40:15.109Z,3.00
2019-03-12T02:42:44.676Z,3.00
2019-03-12T02:45:14.456Z,3.00
2019-03-12T02:47:44.100Z,3.00
2019-03-12T02:50:13.906Z,3.00
2019-03-12T02:52:43.960Z,3.00
2019-03-12T02:55:14.519Z,3.00
2019-03-12T02:57:44.151Z,3.00
2019-03-12T03:00:16.818Z,3.00
2019-03-12T03:02:46.354Z,3.00
2019-03-12T03:05:16.033Z,3.10
2019-03-12T03:07:56.284Z,3.00
2019-03-12T03:10:25.861Z,3.00
2019-03-12T03:12:55.507Z,3.10
2019-03-12T03:15:27.045Z,3.10
2019-03-12T03:17:56.700Z,3.10
2019-03-12T03:20:26.201Z,3.00
2019-03-12T03:22:55.852Z,3.10
2019-03-12T03:25:25.419Z,3.10
2019-03-12T03:27:55.057Z,3.10
2019-03-12T03:30:24.869Z,3.10
2019-03-12T03:32:54.441Z,3.10
2019-03-12T03:35:24.095Z,3.10
2019-03-12T03:37:53.694Z,3.10
2019-03-12T03:40:23.219Z,3.10
2019-03-12T03:42:52.805Z,3.10
2019-03-12T03:45:22.364Z,3.10
2019-03-12T03:47:52.096Z,3.10
2019-03-12T03:50:21.683Z,3.10
2019-03-12T03:52:51.225Z,3.10
2019-03-12T03:55:20.891Z,3.10
2019-03-12T03:57:50.737Z,3.10
2019-03-12T04:00:21.134Z,3.10
2019-03-12T04:02:50.750Z,3.10
2019-03-12T04:05:20.437Z,3.10
2019-03-12T04:07:50.058Z,3.10
2019-03-12T04:10:19.516Z,3.10
2019-03-12T04:12:48.991Z,3.10
2019-03-12T04:15:18.568Z,3.10
2019-03-12T04:17:48.261Z,3.10
2019-03-12T04:20:18.286Z,3.10
2019-03-12T04:22:47.904Z,3.10
2019-03-12T04:25:17.469Z,3.10
2019-03-12T04:27:47.027Z,3.20
2019-03-12T04:30:16.650Z,3.20
2019-03-12T04:32:46.441Z,3.20
2019-03-12T04:35:17.281Z,3.20
2019-03-12T04:37:46.963Z,3.10
2019-03-12T04:40:16.660Z,3.20
2019-03-12T04:42:46.231Z,3.20
2019-03-12T04:45:16.197Z,3.20
2019-03-12T04:47:45.832Z,3.20
2019-03-12T04:50:15.747Z,3.20
2019-03-12T04:52:45.253Z,3.20
2019-03-12T04:55:15.020Z,3.20
2019-03-12T04:57:44.674Z,3.20
2019-03-12T05:00:15.856Z,3.20
2019-03-12T05:02:45.345Z,3.20
2019-03-12T05:05:14.950Z,3.20
2019-03-12T05:07:44.569Z,3.20
2019-03-12T05:10:14.548Z,3.20
2019-03-12T05:12:44.179Z,3.20
2019-03-12T05:15:14.177Z,3.20
2019-03-12T05:17:43.976Z,3.20
2019-03-12T05:20:14.111Z,3.20
2019-03-12T05:22:43.746Z,3.20
2019-03-12T05:25:13.811Z,3.20
2019-03-12T05:27:43.780Z,3.20
2019-03-12T05:30:15.378Z,3.20
2019-03-12T05:32:44.888Z,3.20
2019-03-12T05:35:14.788Z,3.20
2019-03-12T05:37:44.412Z,3.20
2019-03-12T05:40:14.048Z,3.20
2019-03-12T05:42:43.658Z,3.20
2019-03-12T05:45:13.571Z,3.20
2019-03-12T05:47:43.042Z,3.20
2019-03-12T05:50:12.987Z,3.20
2019-03-12T05:52:42.562Z,3.20
2019-03-12T05:55:12.208Z,3.20
2019-03-12T05:57:41.841Z,3.20
2019-03-12T06:00:13.231Z,3.20
2019-03-12T06:02:42.863Z,3.20
2019-03-12T06:05:12.469Z,3.20
2019-03-12T06:07:42.011Z,3.20
2019-03-12T06:10:11.819Z,3.20
2019-03-12T06:12:41.540Z,3.20
2019-03-12T06:15:11.111Z,3.20
2019-03-12T06:17:40.725Z,3.20
2019-03-12T06:20:10.296Z,3.20
2019-03-12T06:22:40.120Z,3.20
2019-03-12T06:25:09.784Z,3.20
2019-03-12T06:27:39.397Z,3.20
2019-03-12T06:30:10.912Z,3.20
2019-03-12T06:32:52.446Z,3.20
2019-03-12T06:35:30.504Z,3.20
2019-03-12T06:38:08.784Z,3.30
2019-03-12T06:40:46.411Z,3.20
2019-03-12T06:43:40.924Z,3.20
2019-03-12T06:46:20.160Z,3.20
2019-03-12T06:49:03.734Z,3.20
2019-03-12T06:51:42.309Z,3.30
2019-03-12T06:54:27.062Z,3.30
2019-03-12T06:57:30.556Z,3.30
2019-03-12T07:00:25.318Z,3.30
2019-03-12T07:03:02.781Z,3.40
2019-03-12T07:05:50.025Z,3.40
2019-03-12T07:08:26.166Z,3.40
2019-03-12T07:11:12.941Z,3.50
2019-03-12T07:14:04.676Z,3.50
2019-03-12T07:17:02.573Z,3.50
2019-03-12T07:20:00.509Z,3.50
2019-03-12T07:22:51.930Z,3.50
2019-03-12T07:25:39.463Z,3.50
2019-03-12T07:28:28.172Z,3.50
2019-03-12T07:31:06.559Z,3.50
2019-03-12T07:33:43.579Z,3.50
2019-03-12T07:36:31.449Z,3.50
2019-03-12T07:39:18.171Z,3.50
2019-03-12T07:42:06.805Z,3.60
2019-03-12T07:44:42.667Z,3.60
2019-03-12T07:47:35.361Z,3.70
2019-03-12T07:50:30.449Z,3.70
2019-03-12T07:53:17.521Z,3.70
2019-03-12T07:56:02.063Z,3.80
2019-03-12T07:58:44.255Z,3.70
2019-03-12T08:01:32.938Z,3.80
2019-03-12T08:04:27.466Z,3.80
2019-03-12T08:07:14.584Z,3.90
2019-03-12T08:10:01.367Z,3.90
2019-03-12T08:12:40.772Z,4.00
2019-03-12T08:15:23.426Z,4.10
2019-03-12T08:18:01.536Z,4.10
2019-03-12T08:20:38.356Z,4.10
2019-03-12T08:23:33.122Z,4.20
2019-03-12T08:26:11.060Z,4.20
2019-03-12T08:28:50.427Z,4.30
2019-03-12T08:31:32.258Z,4.30
2019-03-12T08:34:23.096Z,4.30
2019-03-12T08:37:10.381Z,4.30
2019-03-12T08:39:57.434Z,4.30
2019-03-12T08:42:54.012Z,4.30
2019-03-12T08:45:34.953Z,4.40
2019-03-12T08:48:16.825Z,4.40
2019-03-12T08:51:11.405Z,4.40
2019-03-12T08:54:00.063Z,4.40
2019-03-12T08:56:40.160Z,4.40
2019-03-12T08:59:19.479Z,4.40
2019-03-12T09:01:56.903Z,4.40
2019-03-12T09:04:48.257Z,4.50
2019-03-12T09:07:30.496Z,4.50
2019-03-12T09:10:21.561Z,4.50
2019-03-12T09:13:09.397Z,4.50
2019-03-12T09:15:54.820Z,4.60
2019-03-12T09:18:43.865Z,4.60
2019-03-12T09:21:21.766Z,4.60
2019-03-12T09:24:06.928Z,4.60
2019-03-12T09:26:54.397Z,4.50
2019-03-12T09:29:31.977Z,4.50
2019-03-12T09:32:18.355Z,4.50
2019-03-12T09:35:17.290Z,4.40
2019-03-12T09:37:59.656Z,4.40
2019-03-12T09:40:45.212Z,4.40
2019-03-12T09:43:43.078Z,4.40
2019-03-12T09:46:26.328Z,4.40
2019-03-12T09:49:27.693Z,4.40
2019-03-12T09:52:16.515Z,4.40
2019-03-12T09:55:05.045Z,4.50
2019-03-12T09:57:57.958Z,4.70
2019-03-12T10:00:52.735Z,4.70
2019-03-12T10:03:32.061Z,4.70
2019-03-12T10:06:20.745Z,4.70
2019-03-12T10:09:07.964Z,4.80
2019-03-12T10:11:46.757Z,5.00
2019-03-12T10:14:41.730Z,5.10
2019-03-12T10:17:29.720Z,5.20
2019-03-12T10:20:13.735Z,5.30
2019-03-12T10:22:56.932Z,5.50
2019-03-12T10:25:38.076Z,5.60
2019-03-12T10:28:25.326Z,5.60
2019-03-12T10:31:14.050Z,5.60
2019-03-12T10:34:01.135Z,5.70
2019-03-12T10:36:39.597Z,5.70
2019-03-12T10:39:59.983Z,5.80
2019-03-12T10:42:33.905Z,5.80
2019-03-12T10:45:18.989Z,5.80
2019-03-12T10:47:48.737Z,5.80
2019-03-12T10:50:18.409Z,5.80
2019-03-12T10:52:47.929Z,5.80
2019-03-12T10:55:17.570Z,5.90
2019-03-12T10:57:47.027Z,5.90
2019-03-12T11:00:16.863Z,5.90
2019-03-12T11:02:46.565Z,6.10
2019-03-12T11:05:16.773Z,6.20
2019-03-12T11:07:46.688Z,6.10
2019-03-12T11:10:16.393Z,6.10
2019-03-12T11:12:46.067Z,6.20
2019-03-12T11:15:16.078Z,6.20
2019-03-12T11:17:49.866Z,6.40
2019-03-12T11:20:17.085Z,6.70
2019-03-12T11:22:46.877Z,6.90
2019-03-12T11:25:26.490Z,7.50
2019-03-12T11:27:48.298Z,7.80
2019-03-12T11:30:18.179Z,7.70
2019-03-12T11:32:48.002Z,7.60
2019-03-12T11:35:17.600Z,7.70
2019-03-12T11:37:47.238Z,7.60
2019-03-12T11:40:18.026Z,7.80
2019-03-12T11:42:47.707Z,7.90
2019-03-12T11:45:19.912Z,8.30
2019-03-12T11:47:48.895Z,8.10
2019-03-12T11:50:19.583Z,7.70
2019-03-12T11:52:55.589Z,7.50
2019-03-12T11:55:20.537Z,7.30
2019-03-12T11:57:50.170Z,7.20
2019-03-12T12:00:25.475Z,7.10
2019-03-12T12:02:59.767Z,7.10
2019-03-12T12:05:26.318Z,7.00
2019-03-12T12:07:55.889Z,6.90
2019-03-12T12:10:25.671Z,7.00
2019-03-12T12:12:55.253Z,7.10
2019-03-12T12:15:24.775Z,7.20
2019-03-12T12:17:54.365Z,7.20
2019-03-12T12:20:29.584Z,7.20
2019-03-12T12:22:55.175Z,7.20
2019-03-12T12:25:24.884Z,7.20
2019-03-12T12:27:54.455Z,7.30
2019-03-12T12:30:24.506Z,7.50
2019-03-12T12:32:54.191Z,7.40
2019-03-12T12:35:23.793Z,7.50
2019-03-12T12:37:53.375Z,7.50
2019-03-12T12:40:23.189Z,7.40
2019-03-12T12:42:52.989Z,7.40
2019-03-12T12:45:23.576Z,7.40
2019-03-12T12:47:53.235Z,7.40
2019-03-12T12:50:22.909Z,7.40
2019-03-12T12:52:52.380Z,7.40
2019-03-12T12:55:22.010Z,7.40
2019-03-12T12:57:51.683Z,7.50
2019-03-12T13:00:21.335Z,7.50
2019-03-12T13:02:51.147Z,7.50
2019-03-12T13:05:20.691Z,7.40
2019-03-12T13:07:50.402Z,7.40
2019-03-12T13:10:21.958Z,7.40
2019-03-12T13:12:51.572Z,7.40
2019-03-12T13:15:21.508Z,7.40
2019-03-12T13:17:51.237Z,7.40
2019-03-12T13:20:21.147Z,7.50
2019-03-12T13:22:50.728Z,7.40
2019-03-12T13:25:20.556Z,7.50
2019-03-12T13:27:50.136Z,7.60
2019-03-12T13:30:20.124Z,7.60
2019-03-12T13:32:49.811Z,7.60
2019-03-12T13:35:19.603Z,7.60
2019-03-12T13:37:49.464Z,7.60
2019-03-12T13:40:19.583Z,7.60
2019-03-12T13:42:49.185Z,7.60
2019-03-12T13:45:19.106Z,7.70
2019-03-12T13:47:48.707Z,7.70
2019-03-12T13:50:18.553Z,7.70
2019-03-12T13:52:48.089Z,7.80
2019-03-12T13:55:18.078Z,7.70
2019-03-12T13:57:47.729Z,7.70
2019-03-12T14:00:19.029Z,7.60
2019-03-12T14:02:48.636Z,7.60
2019-03-12T14:05:18.582Z,7.60
2019-03-12T14:07:48.320Z,7.60
2019-03-12T14:10:19.939Z,7.70
2019-03-12T14:12:49.907Z,7.70
2019-03-12T14:15:25.082Z,7.70
2019-03-12T14:17:54.739Z,7.70
2019-03-12T14:20:57.770Z,7.80
2019-03-12T14:23:36.243Z,7.90
2019-03-12T14:26:05.929Z,7.90
2019-03-12T14:28:35.536Z,7.90
2019-03-12T14:31:05.476Z,7.90
2019-03-12T14:33:35.403Z,7.90
2019-03-12T14:36:04.995Z,7.80
2019-03-12T14:38:34.609Z,7.80
2019-03-12T14:41:04.350Z,7.90
2019-03-12T14:43:33.991Z,7.90
2019-03-12T14:46:03.671Z,7.90
2019-03-12T14:48:50.647Z,7.90
2019-03-12T14:51:50.582Z,7.80
2019-03-12T14:54:20.226Z,7.80
2019-03-12T14:56:49.863Z,7.90
2019-03-12T14:59:19.635Z,7.90
2019-03-12T15:01:49.463Z,7.80
2019-03-12T15:04:19.086Z,7.70
2019-03-12T15:06:48.672Z,7.80
2019-03-12T15:09:18.380Z,7.80
2019-03-12T15:11:47.999Z,7.90
2019-03-12T15:14:17.551Z,7.80
2019-03-12T15:16:47.424Z,7.80
2019-03-12T15:19:17.123Z,7.70
2019-03-12T15:21:46.707Z,7.70
2019-03-12T15:24:16.580Z,7.70
2019-03-12T15:26:46.125Z,7.80
2019-03-12T15:29:16.550Z,7.80
2019-03-12T15:31:46.341Z,7.80
2019-03-12T15:34:16.301Z,7.80
2019-03-12T15:36:45.969Z,7.80
2019-03-12T15:39:15.777Z,7.80
2019-03-12T15:41:45.298Z,7.80
2019-03-12T15:44:14.791Z,7.80
2019-03-12T15:46:44.366Z,7.80
2019-03-12T15:49:13.799Z,7.80
2019-03-12T15:51:43.532Z,7.70
2019-03-12T15:54:13.131Z,7.80
2019-03-12T15:56:42.827Z,7.70
2019-03-12T15:59:12.635Z,7.80
2019-03-12T16:01:42.195Z,7.80
2019-03-12T16:04:11.977Z,7.70
2019-03-12T16:06:41.546Z,7.70
2019-03-12T16:09:11.232Z,7.70
2019-03-12T16:11:40.731Z,7.70
2019-03-12T16:14:10.298Z,7.70
2019-03-12T16:16:39.893Z,7.70
2019-03-12T16:19:09.509Z,7.70
2019-03-12T16:21:40.453Z,7.70
2019-03-12T16:24:10.413Z,7.70
2019-03-12T16:26:40.012Z,7.70
2019-03-12T16:29:09.697Z,7.70
2019-03-12T16:31:39.250Z,7.70
2019-03-12T16:34:08.838Z,7.60
2019-03-12T16:36:38.522Z,7.60
2019-03-12T16:39:08.148Z,7.60
2019-03-12T16:41:37.638Z,7.60
2019-03-12T16:44:07.220Z,7.60
2019-03-12T16:46:36.758Z,7.60
2019-03-12T16:49:06.327Z,7.60
2019-03-12T16:51:35.838Z,7.60
2019-03-12T16:54:05.837Z,7.60
2019-03-12T16:56:44.787Z,7.60
2019-03-12T16:59:08.497Z,7.50
2019-03-12T17:01:37.965Z,7.50
2019-03-12T17:04:07.547Z,7.50
2019-03-12T17:06:37.125Z,7.40
2019-03-12T17:09:07.087Z,7.40
2019-03-12T17:11:36.802Z,7.50
2019-03-12T17:14:06.408Z,7.50
2019-03-12T17:16:35.930Z,7.50
2019-03-12T17:19:05.471Z,7.40
2019-03-12T17:21:35.049Z,7.50
2019-03-12T17:24:04.702Z,7.40
2019-03-12T17:26:34.352Z,7.40
2019-03-12T17:29:04.084Z,7.40
2019-03-12T17:31:33.629Z,7.50
2019-03-12T17:34:03.171Z,7.50
2019-03-12T17:36:32.735Z,7.40
2019-03-12T17:39:02.341Z,7.40
2019-03-12T17:41:31.818Z,7.40
2019-03-12T17:44:01.303Z,7.40
2019-03-12T17:46:30.807Z,7.30
2019-03-12T17:49:00.318Z,7.40
2019-03-12T17:51:29.847Z,7.30
2019-03-12T17:53:59.412Z,7.30
2019-03-12T17:56:28.963Z,7.30
2019-03-12T17:58:58.512Z,7.30
2019-03-12T18:01:30.169Z,7.30
2019-03-12T18:03:59.168Z,7.30
2019-03-12T18:06:28.679Z,7.30
2019-03-12T18:08:58.275Z,7.30
2019-03-12T18:11:27.982Z,7.30
2019-03-12T18:13:57.524Z,7.30
2019-03-12T18:16:40.075Z,7.30
2019-03-12T18:18:58.314Z,7.20
2019-03-12T18:21:27.880Z,7.30
2019-03-12T18:23:57.374Z,7.20
2019-03-12T18:26:26.920Z,7.20
2019-03-12T18:28:59.184Z,7.20
2019-03-12T18:31:27.570Z,7.20
2019-03-12T18:33:57.047Z,7.20
2019-03-12T18:36:26.501Z,7.20
2019-03-12T18:38:56.099Z,7.20
2019-03-12T18:41:25.648Z,7.30
2019-03-12T18:43:55.138Z,7.20
2019-03-12T18:46:24.604Z,7.20
2019-03-12T18:48:54.132Z,7.30
2019-03-12T18:51:23.661Z,7.30
2019-03-12T18:53:53.289Z,7.30
2019-03-12T18:56:22.849Z,7.30
2019-03-12T18:58:52.491Z,7.30
2019-03-12T19:01:22.071Z,7.30
2019-03-12T19:03:51.557Z,7.20
2019-03-12T19:06:21.169Z,7.20
2019-03-12T19:08:50.860Z,7.20
2019-03-12T19:11:20.605Z,7.20
2019-03-12T19:13:50.135Z,7.20
2019-03-12T19:16:19.773Z,7.30
2019-03-12T19:18:49.662Z,7.20
2019-03-12T19:21:19.217Z,7.20
2019-03-12T19:23:48.838Z,7.20
2019-03-12T19:26:18.385Z,7.20
2019-03-12T19:28:47.991Z,7.20
2019-03-12T19:31:39.564Z,7.20
2019-03-12T19:34:13.642Z,7.20
2019-03-12T19:36:43.138Z,7.20
2019-03-12T19:39:14.274Z,7.20
2019-03-12T19:41:43.895Z,7.10
2019-03-12T19:44:13.358Z,7.20
2019-03-12T19:46:42.896Z,7.20
2019-03-12T19:49:12.698Z,7.20
2019-03-12T19:51:42.385Z,7.20
2019-03-12T19:54:12.181Z,7.20
2019-03-12T19:56:41.860Z,7.10
2019-03-12T19:59:11.444Z,7.10
2019-03-12T20:01:42.928Z,7.10
2019-03-12T20:04:12.783Z,7.20
2019-03-12T20:06:42.456Z,7.20
2019-03-12T20:09:16.760Z,7.20
2019-03-12T20:12:42.382Z,7.10
2019-03-12T20:15:48.729Z,7.10
2019-03-12T20:18:55.290Z,7.20
2019-03-12T20:22:07.396Z,7.20
2019-03-12T20:25:12.392Z,7.10
2019-03-12T20:28:24.918Z,7.10
2019-03-12T20:31:27.900Z,7.20
2019-03-12T20:34:46.766Z,7.20
2019-03-12T20:37:45.912Z,7.10
2019-03-12T20:40:47.887Z,7.10
2019-03-12T20:43:53.770Z,7.10
2019-03-12T20:47:02.169Z,7.10
2019-03-12T20:50:10.684Z,7.10
2019-03-12T20:53:09.223Z,7.00
2019-03-12T20:56:27.929Z,7.00
2019-03-12T20:59:34.232Z,7.00
2019-03-12T21:02:33.261Z,7.00
2019-03-12T21:05:59.225Z,7.00
2019-03-12T21:09:02.351Z,7.00
2019-03-12T21:12:25.114Z,7.00
2019-03-12T21:15:20.991Z,7.00
2019-03-12T21:18:43.747Z,7.00
2019-03-12T21:21:59.212Z,7.00
2019-03-12T21:24:46.444Z,7.00
2019-03-12T21:27:28.464Z,7.00
2019-03-12T21:29:56.791Z,7.00
2019-03-12T21:32:26.487Z,7.00
2019-03-12T21:34:56.230Z,7.00
2019-03-12T21:37:25.755Z,7.00
2019-03-12T21:39:56.336Z,7.00
2019-03-12T21:42:26.015Z,7.00
2019-03-12T21:44:55.626Z,7.00
2019-03-12T21:47:25.376Z,7.00
2019-03-12T21:49:54.914Z,7.00
2019-03-12T21:52:24.600Z,7.00
2019-03-12T21:54:54.580Z,7.00
2019-03-12T21:57:24.152Z,7.00
2019-03-12T21:59:53.660Z,7.00
2019-03-12T22:02:23.214Z,7.00
2019-03-12T22:04:52.795Z,7.00
2019-03-12T22:07:22.331Z,7.00
2019-03-12T22:09:51.934Z,7.00
2019-03-12T22:12:21.436Z,7.00
2019-03-12T22:14:50.980Z,7.00
2019-03-12T22:17:20.622Z,7.00
2019-03-12T22:19:50.200Z,7.00
2019-03-12T22:22:24.777Z,7.00
2019-03-12T22:24:54.258Z,7.00
2019-03-12T22:27:23.772Z,7.00
2019-03-12T22:29:53.262Z,7.00
2019-03-12T22:32:22.907Z,7.00
2019-03-12T22:34:52.438Z,7.00
2019-03-12T22:37:22.138Z,7.00
2019-03-12T22:39:51.627Z,7.00
2019-03-12T22:42:21.074Z,7.00
2019-03-12T22:44:52.045Z,7.00
2019-03-12T22:47:21.493Z,7.00
2019-03-12T22:49:50.985Z,7.00
2019-03-12T22:52:20.454Z,7.00
2019-03-12T22:54:50.046Z,7.00
2019-03-12T22:57:19.515Z,7.00
2019-03-12T22:59:49.056Z,7.00
2019-03-12T23:02:18.667Z,7.00
2019-03-12T23:04:48.117Z,7.00
2019-03-12T23:07:17.827Z,7.00
2019-03-12T23:09:47.435Z,7.00
2019-03-12T23:12:17.329Z,7.00
2019-03-12T23:14:46.856Z,7.00
2019-03-12T23:17:16.790Z,7.00
2019-03-12T23:19:46.294Z,7.00
2019-03-12T23:22:15.803Z,7.00
2019-03-12T23:24:45.386Z,7.00
2019-03-12T23:27:15.134Z,7.00
2019-03-12T23:29:44.595Z,7.00
2019-03-12T23:32:15.419Z,7.00
2019-03-12T23:34:44.959Z,7.00
2019-03-12T23:37:15.276Z,7.00
2019-03-12T23:39:44.754Z,7.00
2019-03-12T23:42:14.497Z,7.00
2019-03-12T23:44:44.110Z,7.00
2019-03-12T23:47:13.739Z,7.00
2019-03-12T23:49:43.326Z,7.10
2019-03-12T23:52:12.980Z,7.10
2019-03-12T23:54:42.547Z,7.10
2019-03-12T23:57:12.357Z,7.10
2019-03-12T23:59:41.828Z,7.20
